Time;durP1;ratioP1;P1;durP2;ratioP2;P2;SDS_P1;SDS_P2;PMS_P1;PMS_P2;Temp;Humidity;BMP_temperature;BMP_pressure;BME280_temperature;BME280_humidity;BME280_pressure;Samples;Min_cycle;Max_cycle;Signal;HPM_P1;HPM_P2
2023/09/19 00:01:08;;;;;;;2.50;0.90;;;;;;;;;;5053757;28;20408;-92
2023/09/19 00:03:37;;;;;;;2.40;0.83;;;;;;;;;;5054602;28;20416;-83
2023/09/19 00:06:03;;;;;;;2.00;1.00;;;;;;;;;;5054325;28;20779;-82
2023/09/19 00:08:29;;;;;;;3.17;1.13;;;;;;;;;;5053034;28;20492;-84
2023/09/19 00:10:55;;;;;;;3.63;1.47;;;;;;;;;;5053648;28;20533;-85
2023/09/19 00:13:21;;;;;;;4.20;1.67;;;;;;;;;;5054167;28;20426;-88
2023/09/19 00:15:50;;;;;;;3.53;0.60;;;;;;;;;;5053365;28;20413;-88
2023/09/19 00:18:18;;;;;;;2.63;1.10;;;;;;;;;;5053769;28;20510;-85
2023/09/19 00:20:47;;;;;;;4.43;1.07;;;;;;;;;;5053450;28;20431;-84
2023/09/19 00:23:13;;;;;;;2.60;0.40;;;;;;;;;;5053456;28;20421;-84
2023/09/19 00:25:40;;;;;;;2.87;1.03;;;;;;;;;;5053353;28;20505;-85
2023/09/19 00:28:07;;;;;;;2.67;1.13;;;;;;;;;;5053296;28;20418;-84
2023/09/19 00:30:33;;;;;;;3.67;1.30;;;;;;;;;;5051810;28;20487;-87
2023/09/19 00:33:00;;;;;;;1.47;0.80;;;;;;;;;;5053321;28;20415;-82
2023/09/19 00:35:27;;;;;;;2.13;0.50;;;;;;;;;;5053098;28;20415;-86
2023/09/19 00:37:53;;;;;;;2.20;0.80;;;;;;;;;;5053603;28;20488;-87
2023/09/19 00:40:21;;;;;;;5.67;1.10;;;;;;;;;;5053315;28;20406;-85
2023/09/19 00:42:47;;;;;;;2.77;1.10;;;;;;;;;;5053374;28;20413;-83
2023/09/19 00:45:14;;;;;;;3.90;1.17;;;;;;;;;;5052865;28;20409;-81
2023/09/19 00:47:41;;;;;;;3.27;0.90;;;;;;;;;;5052023;28;20442;-86
2023/09/19 00:50:09;;;;;;;1.80;1.20;;;;;;;;;;5053197;28;20461;-83
2023/09/19 00:52:38;;;;;;;1.33;0.40;;;;;;;;;;5053189;28;20480;-84
2023/09/19 00:55:05;;;;;;;2.70;1.10;;;;;;;;;;5053035;28;20410;-84
2023/09/19 00:57:32;;;;;;;1.53;1.00;;;;;;;;;;5052865;28;20920;-80
2023/09/19 00:59:59;;;;;;;2.80;0.87;;;;;;;;;;5052753;28;20416;-81
2023/09/19 01:02:27;;;;;;;6.13;1.60;;;;;;;;;;5053363;28;20876;-83
2023/09/19 01:04:53;;;;;;;5.13;1.13;;;;;;;;;;5052820;28;20412;-84
2023/09/19 01:07:19;;;;;;;2.73;1.30;;;;;;;;;;5053045;28;20419;-83
2023/09/19 01:09:45;;;;;;;2.13;1.83;;;;;;;;;;5053082;28;20954;-86
2023/09/19 01:12:12;;;;;;;2.87;0.80;;;;;;;;;;5053226;28;20474;-82
2023/09/19 01:14:43;;;;;;;2.30;1.50;;;;;;;;;;5053245;28;20444;-90
2023/09/19 01:17:22;;;;;;;3.27;1.90;;;;;;;;;;5053064;28;20412;-87
2023/09/19 01:20:05;;;;;;;5.53;1.90;;;;;;;;;;5053196;28;20408;-87
2023/09/19 01:22:49;;;;;;;1.73;0.63;;;;;;;;;;5053164;28;20927;-86
2023/09/19 01:25:21;;;;;;;3.03;1.47;;;;;;;;;;5053252;28;20409;-83
2023/09/19 01:28:06;;;;;;;3.60;1.33;;;;;;;;;;5053268;28;20412;-86
2023/09/19 01:30:33;;;;;;;2.73;1.53;;;;;;;;;;5052763;28;20407;-89
2023/09/19 01:33:00;;;;;;;4.37;2.87;;;;;;;;;;5052950;28;20421;-82
2023/09/19 01:35:26;;;;;;;4.00;2.13;;;;;;;;;;5052895;28;20406;-83
2023/09/19 01:37:53;;;;;;;4.00;2.57;;;;;;;;;;5052935;28;20426;-81
2023/09/19 01:40:21;;;;;;;4.40;2.37;;;;;;;;;;5052858;28;20707;-87
2023/09/19 01:42:55;;;;;;;3.60;2.40;;;;;;;;;;5051934;28;20482;-85
2023/09/19 01:45:33;;;;;;;3.03;1.60;;;;;;;;;;5052372;28;20437;-86
2023/09/19 01:48:03;;;;;;;5.93;3.20;;;;;;;;;;5053224;28;20412;-84
2023/09/19 01:50:40;;;;;;;4.57;2.07;;;;;;;;;;5053164;28;20401;-80
2023/09/19 01:53:10;;;;;;;3.13;1.33;;;;;;;;;;5053097;28;20403;-82
2023/09/19 01:55:38;;;;;;;3.67;1.83;;;;;;;;;;5053136;28;20502;-85
2023/09/19 01:58:07;;;;;;;6.53;1.93;;;;;;;;;;5053361;28;20410;-86
2023/09/19 02:00:35;;;;;;;4.07;1.60;;;;;;;;;;5055419;28;20418;-88
2023/09/19 02:03:01;;;;;;;5.23;1.77;;;;;;;;;;5056542;28;20400;-83
2023/09/19 02:05:27;;;;;;;5.57;1.60;;;;;;;;;;5056604;28;20501;-82
2023/09/19 02:07:54;;;;;;;2.80;1.47;;;;;;;;;;5056501;28;20463;-84
2023/09/19 02:10:20;;;;;;;6.57;2.10;;;;;;;;;;5056426;28;20445;-84
2023/09/19 02:12:46;;;;;;;3.17;1.50;;;;;;;;;;5056296;28;20464;-86
2023/09/19 02:15:12;;;;;;;6.83;1.50;;;;;;;;;;5055605;28;20426;-83
2023/09/19 02:17:38;;;;;;;4.10;1.50;;;;;;;;;;5056200;28;20407;-84
2023/09/19 02:20:13;;;;;;;3.13;1.57;;;;;;;;;;5054958;28;20800;-89
2023/09/19 02:22:39;;;;;;;6.40;2.20;;;;;;;;;;5055733;28;20497;-88
2023/09/19 02:25:07;;;;;;;5.47;2.27;;;;;;;;;;5055928;28;20442;-83
2023/09/19 02:27:33;;;;;;;6.40;2.50;;;;;;;;;;5055292;28;20184;-81
2023/09/19 02:30:02;;;;;;;5.83;1.90;;;;;;;;;;5054995;28;20412;-90
2023/09/19 02:32:29;;;;;;;3.20;2.00;;;;;;;;;;5054880;28;20565;-83
2023/09/19 02:34:55;;;;;;;4.67;2.10;;;;;;;;;;5054818;28;20408;-83
2023/09/19 02:37:21;;;;;;;4.70;2.20;;;;;;;;;;5054058;28;20483;-84
2023/09/19 02:39:47;;;;;;;5.77;2.87;;;;;;;;;;5050739;28;20781;-87
2023/09/19 02:42:13;;;;;;;4.97;2.43;;;;;;;;;;5068144;28;20938;-81
2023/09/19 02:44:39;;;;;;;2.30;1.50;;;;;;;;;;5051372;28;20792;-81
2023/09/19 02:47:05;;;;;;;7.80;2.40;;;;;;;;;;5054004;28;20232;-85
2023/09/19 02:49:32;;;;;;;7.60;2.20;;;;;;;;;;5055260;28;20414;-88
2023/09/19 02:51:59;;;;;;;6.10;2.27;;;;;;;;;;5055408;28;20470;-80
2023/09/19 02:54:25;;;;;;;4.80;1.93;;;;;;;;;;5055131;28;20418;-80
2023/09/19 02:56:51;;;;;;;4.67;1.60;;;;;;;;;;5054972;28;20425;-86
2023/09/19 02:59:19;;;;;;;5.03;1.93;;;;;;;;;;5054867;28;20493;-81
2023/09/19 03:01:47;;;;;;;5.20;1.87;;;;;;;;;;5054584;28;20183;-83
2023/09/19 03:04:19;;;;;;;8.00;1.73;;;;;;;;;;5054845;28;20407;-80
2023/09/19 03:06:45;;;;;;;5.57;2.47;;;;;;;;;;5056482;28;20429;-86
2023/09/19 03:09:11;;;;;;;5.70;2.77;;;;;;;;;;5055994;28;20954;-90
2023/09/19 03:11:37;;;;;;;9.37;2.67;;;;;;;;;;5055235;28;20470;-87
2023/09/19 03:14:04;;;;;;;7.70;1.97;;;;;;;;;;5056652;28;20423;-87
2023/09/19 03:16:29;;;;;;;6.70;2.03;;;;;;;;;;5053567;28;20187;-88
2023/09/19 03:18:55;;;;;;;7.17;1.77;;;;;;;;;;5055261;28;20410;-86
2023/09/19 03:21:21;;;;;;;3.17;1.63;;;;;;;;;;5053730;28;20173;-90
2023/09/19 03:23:47;;;;;;;6.57;1.77;;;;;;;;;;5055537;28;20918;-87
2023/09/19 03:26:15;;;;;;;4.57;1.90;;;;;;;;;;5053926;28;20974;-87
2023/09/19 03:28:42;;;;;;;3.10;1.10;;;;;;;;;;5055187;28;20510;-87
2023/09/19 03:31:08;;;;;;;4.90;1.43;;;;;;;;;;5053953;28;20461;-89
2023/09/19 03:33:34;;;;;;;4.70;1.07;;;;;;;;;;5055365;28;20421;-83
2023/09/19 03:36:00;;;;;;;5.20;1.23;;;;;;;;;;5055887;28;20395;-89
2023/09/19 03:38:27;;;;;;;5.63;2.07;;;;;;;;;;5056142;28;20443;-81
2023/09/19 03:40:52;;;;;;;6.20;1.47;;;;;;;;;;5054815;28;20411;-84
2023/09/19 03:43:19;;;;;;;3.30;1.70;;;;;;;;;;5055458;28;20426;-86
2023/09/19 03:45:46;;;;;;;5.87;2.03;;;;;;;;;;5054588;28;20410;-88
2023/09/19 03:48:12;;;;;;;3.80;1.10;;;;;;;;;;5055679;28;20765;-89
2023/09/19 03:50:38;;;;;;;4.53;1.07;;;;;;;;;;5054952;28;20410;-90
2023/09/19 03:53:07;;;;;;;4.20;0.83;;;;;;;;;;5055714;28;20424;-82
2023/09/19 03:55:35;;;;;;;3.30;1.00;;;;;;;;;;5055492;28;20899;-85
2023/09/19 03:58:01;;;;;;;4.37;1.03;;;;;;;;;;5054422;28;20428;-86
2023/09/19 04:00:27;;;;;;;2.20;0.60;;;;;;;;;;5054213;28;20414;-80
2023/09/19 04:02:53;;;;;;;1.90;0.70;;;;;;;;;;5053815;28;20168;-80
2023/09/19 04:05:19;;;;;;;4.30;0.87;;;;;;;;;;5053510;28;20409;-82
2023/09/19 04:07:45;;;;;;;3.10;1.27;;;;;;;;;;5053717;28;20419;-79
2023/09/19 04:10:12;;;;;;;2.83;0.50;;;;;;;;;;5052243;28;20469;-82
2023/09/19 04:12:38;;;;;;;3.30;0.83;;;;;;;;;;5053536;28;20531;-82
2023/09/19 04:15:05;;;;;;;2.40;0.60;;;;;;;;;;5053432;28;20415;-84
2023/09/19 04:17:33;;;;;;;5.30;1.50;;;;;;;;;;5054004;28;20409;-88
2023/09/19 04:19:59;;;;;;;1.90;1.27;;;;;;;;;;5054672;28;20911;-87
2023/09/19 04:22:25;;;;;;;4.60;0.73;;;;;;;;;;5053311;28;20483;-88
2023/09/19 04:24:50;;;;;;;2.73;0.97;;;;;;;;;;5054360;28;20489;-87
2023/09/19 04:27:16;;;;;;;4.20;0.50;;;;;;;;;;5053896;28;20454;-86
2023/09/19 04:29:43;;;;;;;4.07;1.00;;;;;;;;;;5053799;28;20418;-89
2023/09/19 04:32:09;;;;;;;6.23;1.07;;;;;;;;;;5054359;28;20208;-90
2023/09/19 04:34:35;;;;;;;6.20;0.50;;;;;;;;;;5053951;28;20405;-90
2023/09/19 04:37:02;;;;;;;3.27;0.50;;;;;;;;;;5053922;28;20420;-86
2023/09/19 04:39:28;;;;;;;3.50;0.53;;;;;;;;;;5054039;28;20506;-88
2023/09/19 04:41:54;;;;;;;5.97;0.80;;;;;;;;;;5053550;28;20425;-84
2023/09/19 04:44:21;;;;;;;7.70;0.73;;;;;;;;;;5053170;28;20494;-88
2023/09/19 04:46:47;;;;;;;4.13;0.97;;;;;;;;;;5053555;28;20423;-83
2023/09/19 04:49:13;;;;;;;5.67;0.67;;;;;;;;;;5051664;28;20503;-82
2023/09/19 04:51:40;;;;;;;2.20;0.50;;;;;;;;;;5052937;28;20506;-82
2023/09/19 04:54:06;;;;;;;4.60;0.80;;;;;;;;;;5053002;28;20409;-81
2023/09/19 04:56:32;;;;;;;5.30;0.70;;;;;;;;;;5052879;28;20408;-80
2023/09/19 04:58:58;;;;;;;5.20;0.70;;;;;;;;;;5051759;28;20436;-89
2023/09/19 05:01:25;;;;;;;6.60;0.90;;;;;;;;;;5052484;28;20214;-84
2023/09/19 05:03:54;;;;;;;7.30;0.60;;;;;;;;;;5052984;28;20401;-86
2023/09/19 05:06:23;;;;;;;4.83;0.97;;;;;;;;;;5053696;28;20880;-91
2023/09/19 05:08:51;;;;;;;3.13;0.60;;;;;;;;;;5053497;28;20412;-84
2023/09/19 05:11:18;;;;;;;4.23;1.00;;;;;;;;;;5053457;28;20482;-93
2023/09/19 05:13:44;;;;;;;5.10;0.77;;;;;;;;;;5053663;28;20424;-90
2023/09/19 05:16:10;;;;;;;5.00;0.47;;;;;;;;;;5052971;28;20408;-89
2023/09/19 05:18:36;;;;;;;6.53;0.50;;;;;;;;;;5052885;28;20427;-84
2023/09/19 05:21:05;;;;;;;4.10;0.43;;;;;;;;;;5053421;28;20925;-84
2023/09/19 05:23:31;;;;;;;4.33;2.00;;;;;;;;;;5053612;28;20890;-90
2023/09/19 05:25:58;;;;;;;3.80;0.73;;;;;;;;;;5053042;28;20898;-85
2023/09/19 05:28:24;;;;;;;3.77;0.43;;;;;;;;;;5052822;28;20412;-83
2023/09/19 05:30:50;;;;;;;3.67;0.70;;;;;;;;;;5051518;28;21063;-84
2023/09/19 05:33:18;;;;;;;3.50;0.70;;;;;;;;;;5052741;28;20491;-82
2023/09/19 05:35:45;;;;;;;5.50;1.13;;;;;;;;;;5055848;28;20411;-79
2023/09/19 05:38:12;;;;;;;4.90;1.30;;;;;;;;;;5056540;28;20566;-84
2023/09/19 05:40:42;;;;;;;6.77;1.60;;;;;;;;;;5056678;28;20493;-84
2023/09/19 05:43:08;;;;;;;7.50;1.13;;;;;;;;;;5056232;28;20478;-81
2023/09/19 05:45:34;;;;;;;4.87;0.80;;;;;;;;;;5056097;28;20398;-85
2023/09/19 05:48:08;;;;;;;2.70;0.47;;;;;;;;;;5056289;28;20529;-85
2023/09/19 05:50:34;;;;;;;4.37;0.80;;;;;;;;;;5056140;28;20494;-82
2023/09/19 05:53:00;;;;;;;5.20;0.80;;;;;;;;;;5056183;28;20444;-80
2023/09/19 05:55:26;;;;;;;5.00;0.80;;;;;;;;;;5056247;28;20244;-79
2023/09/19 05:57:52;;;;;;;5.90;0.60;;;;;;;;;;5056160;28;20447;-81
2023/09/19 06:00:22;;;;;;;3.40;0.70;;;;;;;;;;5055778;28;20890;-81
2023/09/19 06:02:49;;;;;;;7.77;1.10;;;;;;;;;;5054824;28;20420;-83
2023/09/19 06:05:15;;;;;;;6.83;1.40;;;;;;;;;;5055939;28;20463;-83
2023/09/19 06:07:41;;;;;;;4.00;0.87;;;;;;;;;;5055971;28;20412;-81
2023/09/19 06:10:09;;;;;;;3.77;1.37;;;;;;;;;;5055666;28;20460;-80
2023/09/19 06:12:38;;;;;;;8.57;1.37;;;;;;;;;;5070719;28;20464;-80
2023/09/19 06:15:23;;;;;;;6.30;0.77;;;;;;;;;;5053801;28;20477;-82
2023/09/19 06:17:49;;;;;;;3.03;0.77;;;;;;;;;;5055553;28;20397;-82
2023/09/19 06:20:16;;;;;;;2.40;1.00;;;;;;;;;;5054019;28;20476;-80
2023/09/19 06:22:43;;;;;;;4.97;1.00;;;;;;;;;;5055407;28;20414;-81
2023/09/19 06:25:11;;;;;;;7.17;2.00;;;;;;;;;;5054872;28;20407;-83
2023/09/19 06:27:37;;;;;;;7.10;1.03;;;;;;;;;;5053810;28;20467;-79
2023/09/19 06:30:04;;;;;;;3.37;1.10;;;;;;;;;;5054829;28;20909;-80
2023/09/19 06:32:30;;;;;;;4.07;0.93;;;;;;;;;;5055234;28;20881;-80
2023/09/19 06:34:58;;;;;;;5.17;1.10;;;;;;;;;;5053862;28;20415;-81
2023/09/19 06:37:25;;;;;;;5.20;0.83;;;;;;;;;;5052661;28;20188;-80
2023/09/19 06:39:52;;;;;;;9.93;1.13;;;;;;;;;;5054226;28;20422;-79
2023/09/19 06:42:18;;;;;;;6.23;1.03;;;;;;;;;;5047459;28;20417;-82
2023/09/19 06:44:44;;;;;;;6.10;1.00;;;;;;;;;;5054252;28;20417;-82
2023/09/19 06:47:10;;;;;;;4.00;1.20;;;;;;;;;;5054874;28;20428;-80
2023/09/19 06:49:36;;;;;;;5.83;1.23;;;;;;;;;;5054913;28;20412;-80
2023/09/19 06:52:02;;;;;;;3.47;0.80;;;;;;;;;;5054834;28;20488;-82
2023/09/19 06:54:31;;;;;;;4.83;0.83;;;;;;;;;;5054881;28;20178;-80
2023/09/19 06:57:00;;;;;;;4.43;0.80;;;;;;;;;;5054686;28;20417;-81
2023/09/19 06:59:25;;;;;;;5.13;0.90;;;;;;;;;;5054326;28;20412;-81
2023/09/19 07:01:51;;;;;;;4.93;1.03;;;;;;;;;;5054623;28;20408;-78
2023/09/19 07:04:19;;;;;;;3.27;0.73;;;;;;;;;;5054609;28;20249;-81
2023/09/19 07:06:45;;;;;;;5.90;1.13;;;;;;;;;;5054683;28;20410;-80
2023/09/19 07:09:12;;;;;;;7.97;1.23;;;;;;;;;;5054396;28;20453;-80
2023/09/19 07:11:38;;;;;;;4.97;1.13;;;;;;;;;;5054447;28;20520;-80
2023/09/19 07:14:05;;;;;;;3.23;1.30;;;;;;;;;;5054197;28;20408;-79
2023/09/19 07:16:31;;;;;;;8.83;1.73;;;;;;;;;;5054404;28;20503;-79
2023/09/19 07:18:57;;;;;;;7.20;1.20;;;;;;;;;;5053099;28;20565;-82
2023/09/19 07:21:23;;;;;;;6.73;1.83;;;;;;;;;;5054340;28;20171;-79
2023/09/19 07:23:49;;;;;;;10.67;1.50;;;;;;;;;;5054159;28;20411;-80
2023/09/19 07:26:15;;;;;;;4.47;1.20;;;;;;;;;;5054215;28;20421;-81
2023/09/19 07:28:41;;;;;;;9.77;0.93;;;;;;;;;;5054141;28;20772;-82
2023/09/19 07:31:10;;;;;;;7.50;1.90;;;;;;;;;;5053737;28;20462;-82
2023/09/19 07:33:36;;;;;;;5.93;1.20;;;;;;;;;;5054128;28;20467;-80
2023/09/19 07:36:02;;;;;;;6.37;1.50;;;;;;;;;;5054026;28;20510;-79
2023/09/19 07:38:28;;;;;;;7.10;1.80;;;;;;;;;;5054078;28;20447;-83
2023/09/19 07:41:00;;;;;;;4.07;1.17;;;;;;;;;;5053016;28;20430;-80
2023/09/19 07:43:26;;;;;;;6.90;2.00;;;;;;;;;;5052739;28;20419;-82
2023/09/19 07:45:53;;;;;;;3.03;0.70;;;;;;;;;;5053404;28;20402;-82
2023/09/19 07:48:19;;;;;;;10.20;1.77;;;;;;;;;;5053748;28;20421;-80
2023/09/19 07:50:45;;;;;;;6.37;1.20;;;;;;;;;;5053648;28;20415;-80
2023/09/19 07:53:13;;;;;;;10.40;1.70;;;;;;;;;;5053736;28;20181;-82
2023/09/19 07:55:40;;;;;;;5.90;1.77;;;;;;;;;;5053824;28;20421;-83
2023/09/19 07:58:07;;;;;;;4.63;2.10;;;;;;;;;;5053124;28;20412;-81
2023/09/19 08:00:34;;;;;;;4.60;1.43;;;;;;;;;;5053181;28;20421;-81
2023/09/19 08:03:00;;;;;;;6.37;2.17;;;;;;;;;;5053579;28;20423;-81
2023/09/19 08:05:27;;;;;;;9.77;2.00;;;;;;;;;;5053217;28;20438;-79
2023/09/19 08:07:56;;;;;;;6.07;1.23;;;;;;;;;;5053456;28;20423;-81
2023/09/19 08:10:22;;;;;;;5.97;1.53;;;;;;;;;;5053187;28;20465;-79
2023/09/19 08:12:49;;;;;;;7.70;1.70;;;;;;;;;;5053301;28;20475;-80
2023/09/19 08:15:19;;;;;;;5.87;1.10;;;;;;;;;;5052993;28;20473;-80
2023/09/19 08:17:45;;;;;;;4.23;1.40;;;;;;;;;;5053214;28;20488;-81
2023/09/19 08:20:22;;;;;;;5.33;0.77;;;;;;;;;;5053224;28;20433;-80
2023/09/19 08:22:49;;;;;;;7.67;1.83;;;;;;;;;;5051922;28;20420;-81
2023/09/19 08:25:17;;;;;;;8.53;1.90;;;;;;;;;;5053202;28;20406;-80
2023/09/19 08:27:47;;;;;;;6.53;1.30;;;;;;;;;;5053159;28;20743;-80
2023/09/19 08:30:14;;;;;;;4.37;1.70;;;;;;;;;;5052782;28;20424;-81
2023/09/19 08:32:42;;;;;;;9.30;1.43;;;;;;;;;;5052984;28;20467;-81
2023/09/19 08:35:09;;;;;;;7.23;1.47;;;;;;;;;;5053027;28;20414;-81
2023/09/19 08:37:35;;;;;;;5.90;1.10;;;;;;;;;;5052292;28;20410;-80
2023/09/19 08:40:01;;;;;;;3.73;0.70;;;;;;;;;;5052679;28;20415;-80
2023/09/19 08:42:27;;;;;;;5.20;0.97;;;;;;;;;;5052929;28;20530;-81
2023/09/19 08:44:55;;;;;;;7.60;1.23;;;;;;;;;;5052113;28;20949;-80
2023/09/19 08:47:23;;;;;;;7.97;1.47;;;;;;;;;;5052561;28;20921;-82
2023/09/19 08:49:53;;;;;;;7.87;1.10;;;;;;;;;;5052832;28;20924;-81
2023/09/19 08:52:35;;;;;;;11.87;1.67;;;;;;;;;;5052321;28;20913;-80
2023/09/19 08:55:10;;;;;;;7.57;1.30;;;;;;;;;;5049612;28;20422;-80
2023/09/19 08:57:41;;;;;;;8.93;1.53;;;;;;;;;;5052508;28;20796;-79
2023/09/19 09:00:11;;;;;;;7.47;2.70;;;;;;;;;;5052273;28;20414;-81
2023/09/19 09:02:40;;;;;;;9.73;1.73;;;;;;;;;;5049611;28;20983;-79
2023/09/19 09:05:07;;;;;;;8.00;1.70;;;;;;;;;;5050960;28;20837;-81
2023/09/19 09:07:34;;;;;;;4.60;0.87;;;;;;;;;;5051849;28;20504;-80
2023/09/19 09:10:00;;;;;;;5.80;1.00;;;;;;;;;;5050469;28;20548;-80
2023/09/19 09:12:26;;;;;;;5.43;1.30;;;;;;;;;;5054711;28;20470;-80
2023/09/19 09:14:52;;;;;;;6.40;0.97;;;;;;;;;;5055046;28;20404;-80
2023/09/19 09:17:21;;;;;;;9.40;1.83;;;;;;;;;;5055486;28;20467;-94
2023/09/19 09:19:47;;;;;;;9.50;1.40;;;;;;;;;;5053696;28;20424;-82
2023/09/19 09:22:13;;;;;;;7.80;1.20;;;;;;;;;;5054484;28;20954;-82
2023/09/19 09:24:53;;;;;;;6.10;1.40;;;;;;;;;;5051617;28;20466;-85
2023/09/19 09:27:20;;;;;;;6.60;1.27;;;;;;;;;;5049020;28;20400;-86
2023/09/19 09:29:49;;;;;;;5.77;1.47;;;;;;;;;;5052115;28;20439;-84
2023/09/19 09:32:21;;;;;;;4.50;0.80;;;;;;;;;;5054030;28;20467;-86
2023/09/19 09:34:54;;;;;;;6.53;1.00;;;;;;;;;;5054052;28;20447;-86
2023/09/19 09:37:21;;;;;;;6.10;0.70;;;;;;;;;;5054484;28;20443;-85
2023/09/19 09:39:51;;;;;;;5.40;1.00;;;;;;;;;;5054366;28;20421;-89
2023/09/19 09:42:35;;;;;;;4.30;0.73;;;;;;;;;;5053633;28;20410;-90
2023/09/19 09:48:13;;;;;;;3.60;0.60;;;;;;;;;;5057841;28;20454;-85
2023/09/19 09:50:55;;;;;;;6.90;0.93;;;;;;;;;;5053254;28;20418;-90
2023/09/19 09:53:25;;;;;;;7.80;1.30;;;;;;;;;;5034946;28;20412;-93
2023/09/19 09:56:07;;;;;;;6.03;1.10;;;;;;;;;;5051444;28;20478;-92
2023/09/19 09:58:37;;;;;;;6.00;0.87;;;;;;;;;;5040050;28;20401;-92
2023/09/19 10:01:14;;;;;;;5.57;1.17;;;;;;;;;;5036107;28;20416;-84
2023/09/19 10:03:43;;;;;;;5.33;1.50;;;;;;;;;;5034796;28;20411;-84
2023/09/19 10:06:26;;;;;;;5.43;0.83;;;;;;;;;;5048164;28;21749;-85
2023/09/19 10:11:47;;;;;;;4.20;1.03;;;;;;;;;;5064253;28;20548;-84
2023/09/19 10:14:16;;;;;;;7.30;1.10;;;;;;;;;;5037055;28;20432;-93
2023/09/19 10:16:46;;;;;;;5.40;1.00;;;;;;;;;;5044931;28;20401;-87
2023/09/19 10:19:15;;;;;;;3.63;0.60;;;;;;;;;;5038428;28;20455;-92
2023/09/19 10:21:43;;;;;;;3.80;0.63;;;;;;;;;;5049426;28;20411;-86
2023/09/19 10:24:09;;;;;;;9.30;1.60;;;;;;;;;;5055519;28;20437;-90
2023/09/19 10:26:36;;;;;;;3.87;0.73;;;;;;;;;;5055249;28;20405;-83
2023/09/19 10:29:07;;;;;;;5.90;1.47;;;;;;;;;;5037166;28;20828;-80
2023/09/19 10:31:34;;;;;;;4.60;0.77;;;;;;;;;;5034902;28;20530;-79
2023/09/19 10:34:04;;;;;;;4.30;1.00;;;;;;;;;;5038738;28;20406;-78
2023/09/19 10:36:36;;;;;;;6.23;1.03;;;;;;;;;;5055221;28;20951;-79
2023/09/19 10:39:06;;;;;;;3.90;0.90;;;;;;;;;;5055247;28;20502;-79
2023/09/19 10:41:34;;;;;;;5.40;1.20;;;;;;;;;;5055163;28;20810;-79
2023/09/19 10:44:03;;;;;;;5.47;1.27;;;;;;;;;;5054833;28;20772;-79
2023/09/19 10:46:29;;;;;;;5.97;0.97;;;;;;;;;;5054990;28;20462;-79
2023/09/19 10:48:59;;;;;;;5.43;1.20;;;;;;;;;;5055051;28;20477;-79
2023/09/19 10:51:28;;;;;;;4.20;0.73;;;;;;;;;;5054859;28;20466;-79
2023/09/19 10:54:07;;;;;;;5.03;1.40;;;;;;;;;;5054974;28;20443;-80
2023/09/19 10:56:36;;;;;;;6.43;0.67;;;;;;;;;;5054840;28;20415;-79
2023/09/19 10:59:13;;;;;;;5.07;1.00;;;;;;;;;;5054567;28;20415;-79
2023/09/19 11:01:47;;;;;;;7.97;0.70;;;;;;;;;;5054790;28;20404;-79
2023/09/19 11:04:27;;;;;;;3.57;0.87;;;;;;;;;;5054822;28;20461;-80
2023/09/19 11:07:04;;;;;;;3.10;0.90;;;;;;;;;;5054676;28;20928;-79
2023/09/19 11:09:46;;;;;;;4.77;0.67;;;;;;;;;;5054583;28;20453;-78
2023/09/19 11:12:12;;;;;;;4.23;1.33;;;;;;;;;;5053958;28;20481;-79
2023/09/19 11:14:39;;;;;;;5.57;0.97;;;;;;;;;;5053615;28;20414;-79
2023/09/19 11:17:11;;;;;;;4.60;1.13;;;;;;;;;;5051779;28;20476;-78
2023/09/19 11:19:56;;;;;;;8.57;0.83;;;;;;;;;;5054543;28;20415;-79
2023/09/19 11:22:22;;;;;;;4.00;0.73;;;;;;;;;;5054454;28;20407;-81
2023/09/19 11:24:51;;;;;;;3.97;0.50;;;;;;;;;;5054378;28;20411;-80
2023/09/19 11:27:18;;;;;;;4.97;1.80;;;;;;;;;;5054192;28;20924;-80
2023/09/19 11:29:44;;;;;;;7.90;1.27;;;;;;;;;;5054036;28;20443;-80
2023/09/19 11:32:10;;;;;;;3.93;1.00;;;;;;;;;;5053275;28;20481;-80
2023/09/19 11:34:39;;;;;;;3.47;0.70;;;;;;;;;;5054235;28;20406;-79
2023/09/19 11:37:11;;;;;;;5.80;0.90;;;;;;;;;;5053331;28;20839;-79
2023/09/19 11:39:43;;;;;;;3.70;0.93;;;;;;;;;;5051248;28;20947;-79
2023/09/19 11:42:28;;;;;;;5.27;0.87;;;;;;;;;;5053883;28;20430;-78
2023/09/19 11:44:55;;;;;;;5.33;0.73;;;;;;;;;;5053540;28;20416;-78
2023/09/19 11:47:24;;;;;;;4.93;1.00;;;;;;;;;;5068997;28;20408;-78
2023/09/19 11:49:53;;;;;;;5.37;0.97;;;;;;;;;;5053761;28;20419;-78
2023/09/19 11:52:24;;;;;;;5.87;0.70;;;;;;;;;;5053791;28;20474;-78
2023/09/19 11:54:56;;;;;;;8.80;1.20;;;;;;;;;;5053793;28;20780;-79
2023/09/19 11:57:23;;;;;;;3.20;0.67;;;;;;;;;;5053774;28;20476;-78
2023/09/19 11:59:49;;;;;;;6.50;1.47;;;;;;;;;;5053379;28;20922;-78
2023/09/19 12:02:21;;;;;;;3.93;0.80;;;;;;;;;;5053644;28;20406;-78
2023/09/19 12:04:48;;;;;;;6.80;1.20;;;;;;;;;;5053576;28;20411;-78
2023/09/19 12:07:15;;;;;;;6.67;1.07;;;;;;;;;;5053885;28;20905;-78
2023/09/19 12:09:43;;;;;;;10.63;1.50;;;;;;;;;;5053349;28;20458;-77
2023/09/19 12:12:09;;;;;;;6.97;1.57;;;;;;;;;;5052100;28;20478;-78
2023/09/19 12:14:36;;;;;;;5.23;1.17;;;;;;;;;;5053131;28;20411;-79
2023/09/19 12:17:03;;;;;;;6.23;1.03;;;;;;;;;;5053345;28;20405;-79
2023/09/19 12:19:29;;;;;;;5.00;0.97;;;;;;;;;;5053340;28;20408;-79
2023/09/19 12:21:59;;;;;;;4.77;1.03;;;;;;;;;;5053331;28;20497;-79
2023/09/19 12:24:26;;;;;;;5.10;0.90;;;;;;;;;;5053276;28;20409;-78
2023/09/19 12:26:52;;;;;;;4.77;0.90;;;;;;;;;;5053188;28;20416;-79
2023/09/19 12:29:22;;;;;;;3.23;1.07;;;;;;;;;;5052773;28;20411;-78
2023/09/19 12:31:54;;;;;;;5.80;1.20;;;;;;;;;;5053095;28;20474;-78
2023/09/19 12:34:22;;;;;;;4.00;1.20;;;;;;;;;;5053109;28;20407;-78
2023/09/19 12:36:48;;;;;;;3.77;1.60;;;;;;;;;;5053061;28;20530;-78
2023/09/19 12:39:29;;;;;;;4.73;1.27;;;;;;;;;;5053014;28;20469;-79
2023/09/19 12:41:56;;;;;;;7.00;2.03;;;;;;;;;;5053004;28;20416;-78
2023/09/19 12:44:24;;;;;;;3.93;0.83;;;;;;;;;;5051249;28;20913;-79
2023/09/19 12:46:50;;;;;;;5.70;1.43;;;;;;;;;;5052920;28;20407;-79
2023/09/19 12:49:20;;;;;;;4.43;2.10;;;;;;;;;;5052794;28;20415;-79
2023/09/19 12:51:47;;;;;;;5.10;1.50;;;;;;;;;;5052784;28;20310;-79
2023/09/19 12:54:15;;;;;;;7.37;1.70;;;;;;;;;;5052926;28;20434;-78
2023/09/19 12:56:44;;;;;;;7.73;1.73;;;;;;;;;;5052867;28;20407;-77
2023/09/19 12:59:13;;;;;;;5.83;1.97;;;;;;;;;;5052082;28;20398;-78
2023/09/19 13:01:43;;;;;;;8.43;1.90;;;;;;;;;;5052354;28;20412;-78
2023/09/19 13:04:19;;;;;;;4.07;1.20;;;;;;;;;;5050277;28;20454;-79
2023/09/19 13:06:48;;;;;;;8.40;1.70;;;;;;;;;;5052170;28;20990;-78
2023/09/19 13:09:14;;;;;;;4.73;0.80;;;;;;;;;;5051921;28;20455;-78
2023/09/19 13:11:43;;;;;;;4.40;1.20;;;;;;;;;;5050926;28;20828;-77
2023/09/19 13:14:19;;;;;;;3.20;0.67;;;;;;;;;;5051804;28;20772;-78
2023/09/19 13:17:19;;;;;;;7.30;2.00;;;;;;;;;;5052182;28;20415;-78
2023/09/19 13:19:56;;;;;;;4.23;0.80;;;;;;;;;;5030060;28;20418;-78
2023/09/19 13:22:53;;;;;;;6.03;1.20;;;;;;;;;;5050843;28;20819;-78
2023/09/19 13:25:20;;;;;;;5.33;1.23;;;;;;;;;;5050250;28;20481;-78
2023/09/19 13:27:54;;;;;;;5.03;1.23;;;;;;;;;;5052084;28;20403;-78
2023/09/19 13:30:20;;;;;;;3.70;1.30;;;;;;;;;;5052506;28;20410;-78
2023/09/19 13:32:47;;;;;;;6.00;1.50;;;;;;;;;;5052303;28;20868;-79
2023/09/19 13:35:13;;;;;;;10.10;1.73;;;;;;;;;;5049176;28;20903;-79
2023/09/19 13:37:44;;;;;;;5.47;1.47;;;;;;;;;;5050138;28;20419;-78
2023/09/19 13:40:11;;;;;;;5.73;1.43;;;;;;;;;;5047650;28;20429;-78
2023/09/19 13:42:37;;;;;;;6.50;1.50;;;;;;;;;;5050966;28;20755;-77
2023/09/19 13:45:07;;;;;;;5.97;1.07;;;;;;;;;;5051683;28;20905;-79
2023/09/19 13:47:33;;;;;;;6.60;1.30;;;;;;;;;;5048525;28;20496;-78
2023/09/19 13:50:03;;;;;;;7.37;1.77;;;;;;;;;;5051508;28;20848;-78
2023/09/19 13:52:30;;;;;;;10.87;1.67;;;;;;;;;;5049202;28;20474;-79
2023/09/19 13:54:56;;;;;;;4.97;1.00;;;;;;;;;;5052705;28;20837;-79
2023/09/19 13:57:23;;;;;;;5.60;2.07;;;;;;;;;;5055884;28;20427;-78
2023/09/19 13:59:48;;;;;;;6.77;1.23;;;;;;;;;;5055420;28;20408;-79
2023/09/19 14:02:14;;;;;;;5.10;1.27;;;;;;;;;;5055651;28;20420;-78
2023/09/19 14:04:40;;;;;;;10.20;1.33;;;;;;;;;;5055820;28;20170;-78
2023/09/19 14:07:07;;;;;;;5.63;1.13;;;;;;;;;;5055356;28;20905;-78
2023/09/19 14:09:33;;;;;;;3.87;1.30;;;;;;;;;;5054041;28;20561;-80
2023/09/19 14:11:59;;;;;;;4.70;1.70;;;;;;;;;;5055484;28;20519;-79
2023/09/19 14:14:25;;;;;;;4.90;1.37;;;;;;;;;;5053869;28;20865;-80
2023/09/19 14:17:04;;;;;;;2.63;0.60;;;;;;;;;;5054306;28;20524;-78
2023/09/19 14:19:30;;;;;;;6.20;1.53;;;;;;;;;;5056136;28;20260;-79
2023/09/19 14:21:55;;;;;;;3.93;1.30;;;;;;;;;;5054427;28;20464;-79
2023/09/19 14:24:22;;;;;;;5.10;1.33;;;;;;;;;;5055725;28;20528;-79
2023/09/19 14:26:49;;;;;;;4.37;1.10;;;;;;;;;;5055523;28;20177;-79
2023/09/19 14:29:15;;;;;;;5.47;1.10;;;;;;;;;;5054950;28;20931;-79
2023/09/19 14:31:40;;;;;;;8.67;1.57;;;;;;;;;;5054667;28;20452;-78
2023/09/19 14:34:09;;;;;;;3.77;1.20;;;;;;;;;;5054565;28;20187;-79
2023/09/19 14:36:35;;;;;;;3.67;0.60;;;;;;;;;;5048114;28;20453;-79
2023/09/19 14:39:02;;;;;;;3.80;0.83;;;;;;;;;;5054147;28;20459;-79
2023/09/19 14:41:28;;;;;;;5.30;1.43;;;;;;;;;;5048669;28;20170;-78
2023/09/19 14:43:55;;;;;;;6.60;1.47;;;;;;;;;;5053425;28;20420;-79
2023/09/19 14:46:21;;;;;;;6.67;1.23;;;;;;;;;;5054407;28;20404;-79
2023/09/19 14:48:47;;;;;;;6.33;1.00;;;;;;;;;;5054147;28;20408;-79
2023/09/19 14:51:13;;;;;;;6.10;1.30;;;;;;;;;;5054125;28;20525;-78
2023/09/19 14:53:39;;;;;;;3.60;0.80;;;;;;;;;;5054054;28;20174;-79
2023/09/19 14:56:07;;;;;;;4.60;1.50;;;;;;;;;;5051012;28;20768;-80